Time;durP1;ratioP1;P1;durP2;ratioP2;P2;SDS_P1;SDS_P2;PMS_P1;PMS_P2;Temp;Humidity;BMP_temperature;BMP_pressure;BME280_temperature;BME280_humidity;BME280_pressure;Samples;Min_cycle;Max_cycle;Signal;HPM_P1;HPM_P2
2021/10/10 00:00:30;;;;;;;2.87;2.47;;;;;;;;;;143731;604;46018;-89
2021/10/10 00:02:56;;;;;;;3.72;2.67;;;;;;;;;;143730;575;46012;-92
2021/10/10 00:05:23;;;;;;;2.50;2.30;;;;;;;;;;143732;652;47018;-88
2021/10/10 00:07:52;;;;;;;3.92;2.83;;;;;;;;;;143733;570;46020;-89
2021/10/10 00:10:19;;;;;;;2.85;2.40;;;;;;;;;;143732;569;47020;-89
2021/10/10 00:12:45;;;;;;;3.15;2.47;;;;;;;;;;143729;669;46013;-89
2021/10/10 00:15:13;;;;;;;3.28;2.22;;;;;;;;;;143726;597;46019;-91
2021/10/10 00:17:40;;;;;;;4.45;2.72;;;;;;;;;;143733;577;46022;-88
2021/10/10 00:20:08;;;;;;;3.62;2.33;;;;;;;;;;143732;668;46020;-88
2021/10/10 00:22:34;;;;;;;5.35;2.85;;;;;;;;;;143731;605;46012;-89
2021/10/10 00:25:02;;;;;;;4.40;3.55;;;;;;;;;;143732;577;46018;-90
2021/10/10 00:27:30;;;;;;;5.32;2.85;;;;;;;;;;143735;569;46021;-91
2021/10/10 00:29:56;;;;;;;4.03;2.75;;;;;;;;;;143729;603;47018;-88
2021/10/10 00:32:23;;;;;;;9.63;3.62;;;;;;;;;;143736;570;46012;-89
2021/10/10 00:34:49;;;;;;;8.63;3.85;;;;;;;;;;143732;591;47018;-90
2021/10/10 00:37:16;;;;;;;5.47;3.53;;;;;;;;;;143734;660;46012;-90
2021/10/10 00:39:43;;;;;;;8.25;4.30;;;;;;;;;;143726;662;47020;-91
2021/10/10 00:42:09;;;;;;;4.75;3.70;;;;;;;;;;143731;638;46013;-88
2021/10/10 00:44:36;;;;;;;7.60;4.18;;;;;;;;;;143730;566;47019;-90
2021/10/10 00:47:04;;;;;;;7.53;3.42;;;;;;;;;;143731;719;47022;-91
2021/10/10 00:49:31;;;;;;;9.43;3.95;;;;;;;;;;143731;571;47019;-91
2021/10/10 00:51:59;;;;;;;7.10;3.60;;;;;;;;;;143730;608;46013;-91
2021/10/10 00:54:28;;;;;;;4.03;3.50;;;;;;;;;;143734;621;46018;-88
2021/10/10 00:56:57;;;;;;;3.58;3.00;;;;;;;;;;143734;573;46012;-90
2021/10/10 00:59:27;;;;;;;4.57;3.33;;;;;;;;;;143730;583;47021;-91
2021/10/10 01:01:54;;;;;;;5.47;2.90;;;;;;;;;;143729;578;46012;-89
2021/10/10 01:04:21;;;;;;;3.55;2.95;;;;;;;;;;143727;662;46018;-90
2021/10/10 01:06:48;;;;;;;4.30;2.97;;;;;;;;;;143734;564;46020;-90
2021/10/10 01:09:15;;;;;;;4.75;4.22;;;;;;;;;;143732;594;46042;-90
2021/10/10 01:11:42;;;;;;;4.07;3.45;;;;;;;;;;143729;589;46022;-89
2021/10/10 01:14:11;;;;;;;4.47;3.83;;;;;;;;;;143732;638;47019;-90
2021/10/10 01:16:38;;;;;;;7.03;4.18;;;;;;;;;;143731;687;46012;-89
2021/10/10 01:19:06;;;;;;;6.12;4.45;;;;;;;;;;143728;574;47018;-90
2021/10/10 01:21:33;;;;;;;4.90;4.40;;;;;;;;;;143731;582;46013;-89
2021/10/10 01:24:00;;;;;;;7.37;5.35;;;;;;;;;;143733;594;46018;-90
2021/10/10 01:26:27;;;;;;;6.57;4.47;;;;;;;;;;143729;633;46021;-91
2021/10/10 01:28:53;;;;;;;8.95;4.57;;;;;;;;;;143724;672;46021;-89
2021/10/10 01:31:20;;;;;;;5.28;4.78;;;;;;;;;;143729;605;46012;-90
2021/10/10 01:33:47;;;;;;;7.68;4.47;;;;;;;;;;143727;634;47018;-90
2021/10/10 01:36:15;;;;;;;5.20;4.70;;;;;;;;;;143732;587;46013;-90
2021/10/10 01:38:43;;;;;;;4.43;3.95;;;;;;;;;;143728;618;47020;-90
2021/10/10 01:41:11;;;;;;;6.60;3.90;;;;;;;;;;143730;580;46012;-91
2021/10/10 01:43:38;;;;;;;7.30;4.35;;;;;;;;;;143728;564;47019;-91
2021/10/10 01:46:05;;;;;;;6.30;4.32;;;;;;;;;;143731;581;46022;-90
2021/10/10 01:48:33;;;;;;;4.28;3.87;;;;;;;;;;143729;584;47020;-89
2021/10/10 01:51:00;;;;;;;4.97;4.10;;;;;;;;;;143730;659;46045;-89
2021/10/10 01:53:27;;;;;;;4.05;3.65;;;;;;;;;;143721;579;47018;-89
2021/10/10 01:55:54;;;;;;;7.28;5.15;;;;;;;;;;143732;741;46022;-90
2021/10/10 01:58:21;;;;;;;5.45;4.32;;;;;;;;;;143725;566;47019;-90
2021/10/10 02:00:48;;;;;;;6.43;5.18;;;;;;;;;;143729;603;46012;-90
2021/10/10 02:03:15;;;;;;;6.30;4.22;;;;;;;;;;143729;585;46018;-89
2021/10/10 02:05:41;;;;;;;5.22;4.03;;;;;;;;;;143732;654;46013;-89
2021/10/10 02:08:08;;;;;;;8.32;4.40;;;;;;;;;;143726;569;47018;-91
2021/10/10 02:10:35;;;;;;;5.10;4.40;;;;;;;;;;143728;590;46012;-89
2021/10/10 02:13:01;;;;;;;5.80;4.15;;;;;;;;;;143729;589;46019;-90
2021/10/10 02:15:29;;;;;;;7.62;4.68;;;;;;;;;;143734;607;45032;-89
2021/10/10 02:17:55;;;;;;;4.68;4.18;;;;;;;;;;143724;577;46020;-89
2021/10/10 02:20:22;;;;;;;6.60;4.47;;;;;;;;;;143729;651;46012;-88
2021/10/10 02:22:49;;;;;;;6.95;5.00;;;;;;;;;;143722;573;47018;-89
2021/10/10 02:25:15;;;;;;;6.65;4.60;;;;;;;;;;143733;573;46012;-89
2021/10/10 02:27:43;;;;;;;5.65;3.97;;;;;;;;;;143731;569;47020;-88
2021/10/10 02:30:10;;;;;;;5.90;4.62;;;;;;;;;;143730;585;46012;-90
2021/10/10 02:32:37;;;;;;;6.07;4.82;;;;;;;;;;143731;576;47018;-89
2021/10/10 02:35:06;;;;;;;6.00;3.92;;;;;;;;;;143731;664;46013;-90
2021/10/10 02:37:33;;;;;;;6.90;4.97;;;;;;;;;;143730;738;46018;-89
2021/10/10 02:39:59;;;;;;;4.62;4.18;;;;;;;;;;143728;635;46022;-90
2021/10/10 02:42:26;;;;;;;6.72;4.65;;;;;;;;;;143724;745;46039;-88
2021/10/10 02:44:53;;;;;;;6.40;4.87;;;;;;;;;;143731;564;46012;-89
2021/10/10 02:47:20;;;;;;;5.62;4.80;;;;;;;;;;143729;696;47018;-90
2021/10/10 02:49:46;;;;;;;7.90;4.60;;;;;;;;;;143731;576;46920;-88
2021/10/10 02:52:13;;;;;;;8.18;4.53;;;;;;;;;;143730;578;47018;-90
2021/10/10 02:54:39;;;;;;;7.53;4.03;;;;;;;;;;143732;642;46012;-89
2021/10/10 02:57:06;;;;;;;5.10;4.32;;;;;;;;;;143731;583;47018;-89
2021/10/10 02:59:33;;;;;;;7.97;5.50;;;;;;;;;;143730;592;46012;-90
2021/10/10 03:01:59;;;;;;;9.02;5.22;;;;;;;;;;143730;575;46018;-91
2021/10/10 03:04:26;;;;;;;4.55;3.85;;;;;;;;;;143731;643;46013;-89
2021/10/10 03:06:53;;;;;;;5.07;4.30;;;;;;;;;;143723;603;47018;-89
2021/10/10 03:09:19;;;;;;;7.62;4.45;;;;;;;;;;143729;564;46012;-91
2021/10/10 03:11:46;;;;;;;5.20;4.25;;;;;;;;;;143732;594;46018;-90
2021/10/10 03:14:13;;;;;;;6.10;4.53;;;;;;;;;;143731;588;47012;-86
2021/10/10 03:16:40;;;;;;;5.97;4.68;;;;;;;;;;143730;606;46014;-90
2021/10/10 03:19:07;;;;;;;7.57;4.40;;;;;;;;;;143728;574;46013;-89
2021/10/10 03:21:34;;;;;;;7.80;4.62;;;;;;;;;;143729;600;47016;-87
2021/10/10 03:24:01;;;;;;;6.00;4.60;;;;;;;;;;143731;585;46020;-87
2021/10/10 03:26:27;;;;;;;7.80;4.82;;;;;;;;;;143729;603;46020;-90
2021/10/10 03:28:54;;;;;;;5.93;5.12;;;;;;;;;;143730;565;46022;-90
2021/10/10 03:31:21;;;;;;;7.10;4.75;;;;;;;;;;143720;581;47018;-89
2021/10/10 03:33:48;;;;;;;5.85;4.47;;;;;;;;;;143729;574;46021;-90
2021/10/10 03:36:14;;;;;;;7.07;5.22;;;;;;;;;;143731;609;47021;-90
2021/10/10 03:38:41;;;;;;;10.05;4.78;;;;;;;;;;143732;676;46022;-89
2021/10/10 03:41:07;;;;;;;8.20;5.15;;;;;;;;;;143728;602;47019;-89
2021/10/10 03:43:35;;;;;;;5.40;4.80;;;;;;;;;;143731;602;46012;-90
2021/10/10 03:46:02;;;;;;;6.30;5.03;;;;;;;;;;143730;572;46020;-89
2021/10/10 03:48:29;;;;;;;6.05;4.60;;;;;;;;;;143732;578;46013;-89
2021/10/10 03:50:55;;;;;;;7.82;5.47;;;;;;;;;;143733;570;46019;-89
2021/10/10 03:53:30;;;;;;;8.10;5.87;;;;;;;;;;143732;579;46020;-88
2021/10/10 03:55:58;;;;;;;5.47;4.93;;;;;;;;;;143721;582;48020;-89
2021/10/10 03:58:24;;;;;;;5.68;5.00;;;;;;;;;;143730;575;46022;-89
2021/10/10 04:00:51;;;;;;;6.18;5.30;;;;;;;;;;143730;577;46018;-85
2021/10/10 04:03:20;;;;;;;7.43;6.12;;;;;;;;;;143730;566;46013;-87
2021/10/10 04:05:48;;;;;;;6.07;5.10;;;;;;;;;;143728;571;47021;-85
2021/10/10 04:08:15;;;;;;;6.95;5.87;;;;;;;;;;143731;747;46012;-85
2021/10/10 04:10:41;;;;;;;8.82;5.37;;;;;;;;;;143729;592;46019;-85
2021/10/10 04:13:08;;;;;;;6.45;5.85;;;;;;;;;;143732;585;46012;-90
2021/10/10 04:15:35;;;;;;;4.93;4.45;;;;;;;;;;143727;577;47020;-89
2021/10/10 04:18:02;;;;;;;7.47;5.43;;;;;;;;;;143729;729;46013;-90
2021/10/10 04:20:29;;;;;;;10.57;5.53;;;;;;;;;;143725;613;46045;-89
2021/10/10 04:22:56;;;;;;;5.45;4.95;;;;;;;;;;143730;651;46012;-91
2021/10/10 04:25:23;;;;;;;6.22;5.62;;;;;;;;;;143729;576;46017;-90
2021/10/10 04:27:50;;;;;;;10.50;6.37;;;;;;;;;;143728;569;46012;-90
2021/10/10 04:30:17;;;;;;;9.00;6.07;;;;;;;;;;143730;761;47018;-91
2021/10/10 04:32:44;;;;;;;9.65;5.50;;;;;;;;;;143728;607;46013;-89
2021/10/10 04:35:13;;;;;;;8.50;6.53;;;;;;;;;;143730;570;47021;-88
2021/10/10 04:37:42;;;;;;;6.32;5.72;;;;;;;;;;143728;601;46012;-90
2021/10/10 04:40:12;;;;;;;9.38;5.50;;;;;;;;;;143731;602;46014;-91
2021/10/10 04:42:48;;;;;;;7.30;5.28;;;;;;;;;;143730;628;46020;-91
2021/10/10 04:45:14;;;;;;;7.68;6.05;;;;;;;;;;143723;578;46045;-89
2021/10/10 04:47:41;;;;;;;8.95;5.32;;;;;;;;;;143730;588;46014;-89
2021/10/10 04:50:12;;;;;;;8.00;5.82;;;;;;;;;;143728;675;47018;-89
2021/10/10 04:52:40;;;;;;;8.43;6.22;;;;;;;;;;143733;744;46012;-91
2021/10/10 04:55:07;;;;;;;7.55;5.97;;;;;;;;;;143729;606;47020;-90
2021/10/10 04:57:34;;;;;;;8.45;6.30;;;;;;;;;;143729;577;46012;-88
2021/10/10 05:00:01;;;;;;;6.70;6.05;;;;;;;;;;143728;613;47018;-91
2021/10/10 05:02:27;;;;;;;8.60;6.53;;;;;;;;;;143732;577;46013;-90
2021/10/10 05:04:57;;;;;;;9.15;6.85;;;;;;;;;;143731;565;46021;-89
2021/10/10 05:07:24;;;;;;;10.90;6.85;;;;;;;;;;143730;570;46012;-90
2021/10/10 05:09:50;;;;;;;10.73;7.25;;;;;;;;;;143724;570;46018;-90
2021/10/10 05:12:17;;;;;;;7.10;5.93;;;;;;;;;;143730;583;46012;-91
2021/10/10 05:14:44;;;;;;;8.23;6.40;;;;;;;;;;143725;607;47018;-89
2021/10/10 05:17:11;;;;;;;10.20;7.40;;;;;;;;;;143730;605;46013;-88
2021/10/10 05:19:38;;;;;;;12.88;8.30;;;;;;;;;;143729;585;47018;-84
2021/10/10 05:22:05;;;;;;;8.85;6.93;;;;;;;;;;143731;579;46012;-88
2021/10/10 05:24:32;;;;;;;7.90;6.82;;;;;;;;;;143731;597;46019;-89
2021/10/10 05:27:00;;;;;;;9.02;6.93;;;;;;;;;;143730;663;46012;-89
2021/10/10 05:29:27;;;;;;;9.95;7.05;;;;;;;;;;143728;594;47018;-88
2021/10/10 05:31:54;;;;;;;7.10;5.62;;;;;;;;;;143731;565;46013;-89
2021/10/10 05:34:21;;;;;;;6.37;5.50;;;;;;;;;;143723;572;47018;-88
2021/10/10 05:36:48;;;;;;;5.78;5.25;;;;;;;;;;143730;669;46012;-89
2021/10/10 05:39:15;;;;;;;8.13;5.65;;;;;;;;;;143733;599;46018;-89
2021/10/10 05:41:41;;;;;;;7.60;5.55;;;;;;;;;;143731;604;46020;-89
2021/10/10 05:44:09;;;;;;;9.93;6.32;;;;;;;;;;143730;601;47020;-89
2021/10/10 05:46:36;;;;;;;6.97;6.28;;;;;;;;;;143729;580;46013;-90
2021/10/10 05:49:02;;;;;;;7.60;6.78;;;;;;;;;;143729;628;46019;-88
2021/10/10 05:51:29;;;;;;;7.62;6.10;;;;;;;;;;143731;569;47022;-89
2021/10/10 05:53:56;;;;;;;6.65;6.03;;;;;;;;;;143730;606;46020;-89
2021/10/10 05:56:23;;;;;;;6.15;5.55;;;;;;;;;;143731;606;46012;-89
2021/10/10 05:58:56;;;;;;;7.53;6.30;;;;;;;;;;143722;564;47018;-90
2021/10/10 06:01:23;;;;;;;10.18;5.95;;;;;;;;;;143733;577;46020;-87
2021/10/10 06:03:50;;;;;;;9.52;6.30;;;;;;;;;;143731;569;47019;-90
2021/10/10 06:06:17;;;;;;;7.72;6.28;;;;;;;;;;143729;577;46919;-90
2021/10/10 06:08:43;;;;;;;8.68;6.47;;;;;;;;;;143731;715;46018;-89
2021/10/10 06:11:10;;;;;;;8.50;5.43;;;;;;;;;;143730;602;47023;-91
2021/10/10 06:13:40;;;;;;;6.35;5.43;;;;;;;;;;143729;569;47020;-90
2021/10/10 06:16:07;;;;;;;7.68;5.00;;;;;;;;;;143728;602;46920;-88
2021/10/10 06:18:34;;;;;;;7.93;5.85;;;;;;;;;;143730;574;47018;-89
2021/10/10 06:21:00;;;;;;;6.45;4.95;;;;;;;;;;143732;704;46012;-90
2021/10/10 06:23:27;;;;;;;5.97;5.37;;;;;;;;;;143723;589;47020;-90
2021/10/10 06:25:54;;;;;;;6.87;5.30;;;;;;;;;;143729;564;46013;-90
2021/10/10 06:28:21;;;;;;;7.70;5.82;;;;;;;;;;143729;566;46014;-89
2021/10/10 06:30:48;;;;;;;6.57;5.90;;;;;;;;;;143732;592;46026;-89
2021/10/10 06:33:14;;;;;;;12.43;10.00;;;;;;;;;;143730;619;46042;-91
2021/10/10 06:35:41;;;;;;;14.80;10.63;;;;;;;;;;143729;574;46012;-88
2021/10/10 06:38:08;;;;;;;13.02;7.50;;;;;;;;;;143730;566;47018;-89
2021/10/10 06:40:36;;;;;;;9.57;7.37;;;;;;;;;;143732;566;46012;-89
2021/10/10 06:43:03;;;;;;;7.75;6.47;;;;;;;;;;143729;606;47020;-91
2021/10/10 06:45:30;;;;;;;9.25;6.37;;;;;;;;;;143729;649;46012;-88
2021/10/10 06:48:00;;;;;;;7.25;5.37;;;;;;;;;;143725;682;46015;-88
2021/10/10 06:50:27;;;;;;;9.60;6.25;;;;;;;;;;143733;582;46022;-90
2021/10/10 06:52:54;;;;;;;9.20;5.43;;;;;;;;;;143729;634;47020;-89
2021/10/10 06:55:21;;;;;;;12.98;5.32;;;;;;;;;;143729;669;46920;-89
2021/10/10 06:57:48;;;;;;;12.05;6.12;;;;;;;;;;143731;565;46020;-90
2021/10/10 07:00:15;;;;;;;7.82;5.95;;;;;;;;;;143732;573;46014;-90
2021/10/10 07:02:42;;;;;;;7.60;5.78;;;;;;;;;;143731;570;46020;-90
2021/10/10 07:05:10;;;;;;;6.85;4.78;;;;;;;;;;143730;569;46022;-89
2021/10/10 07:07:37;;;;;;;7.85;4.78;;;;;;;;;;143730;563;47018;-90
2021/10/10 07:10:07;;;;;;;7.35;5.70;;;;;;;;;;143730;608;47021;-87
2021/10/10 07:12:35;;;;;;;7.68;5.18;;;;;;;;;;143725;577;47018;-90
2021/10/10 07:15:04;;;;;;;7.07;5.18;;;;;;;;;;143726;614;46022;-90
2021/10/10 07:17:31;;;;;;;6.10;5.30;;;;;;;;;;143732;566;46019;-90
2021/10/10 07:20:28;;;;;;;7.60;6.47;;;;;;;;;;143729;703;46012;-90
2021/10/10 07:23:26;;;;;;;9.00;6.37;;;;;;;;;;143731;582;47020;-89
2021/10/10 07:25:54;;;;;;;10.02;6.03;;;;;;;;;;143729;572;47022;-89
2021/10/10 07:28:20;;;;;;;6.10;5.43;;;;;;;;;;143732;591;47018;-87
2021/10/10 07:30:48;;;;;;;6.45;5.28;;;;;;;;;;143731;658;47013;-91
2021/10/10 07:33:15;;;;;;;8.50;4.70;;;;;;;;;;143730;587;46044;-89
2021/10/10 07:35:42;;;;;;;7.82;4.37;;;;;;;;;;143729;601;46012;-89
2021/10/10 07:38:09;;;;;;;5.62;4.03;;;;;;;;;;143724;570;47018;-89
2021/10/10 07:40:36;;;;;;;5.47;3.75;;;;;;;;;;143733;569;46042;-91
2021/10/10 07:43:03;;;;;;;6.68;4.47;;;;;;;;;;143733;626;46020;-89
2021/10/10 07:45:31;;;;;;;9.05;4.65;;;;;;;;;;143732;575;47022;-89
2021/10/10 07:48:03;;;;;;;8.07;4.90;;;;;;;;;;143729;573;46019;-90
2021/10/10 07:50:30;;;;;;;17.55;6.37;;;;;;;;;;143733;569;46020;-90
2021/10/10 07:53:10;;;;;;;13.32;5.53;;;;;;;;;;143733;585;47020;-91
2021/10/10 07:55:48;;;;;;;7.20;5.47;;;;;;;;;;143732;581;46023;-89
2021/10/10 07:58:43;;;;;;;9.55;6.10;;;;;;;;;;143732;609;46014;-91
2021/10/10 08:01:10;;;;;;;17.00;5.80;;;;;;;;;;143732;636;46013;-90
2021/10/10 08:03:36;;;;;;;11.95;6.45;;;;;;;;;;143719;578;47021;-90
2021/10/10 08:06:03;;;;;;;10.95;6.28;;;;;;;;;;143731;611;46012;-90
2021/10/10 08:08:30;;;;;;;13.68;6.72;;;;;;;;;;143727;569;47018;-91
2021/10/10 08:10:57;;;;;;;28.30;8.98;;;;;;;;;;143733;591;46023;-92
2021/10/10 08:13:24;;;;;;;18.77;7.00;;;;;;;;;;143729;600;47020;-91
2021/10/10 08:15:50;;;;;;;17.87;6.32;;;;;;;;;;143731;581;46013;-92
2021/10/10 08:18:17;;;;;;;23.08;6.20;;;;;;;;;;143731;581;47018;-93
2021/10/10 08:20:44;;;;;;;10.00;5.70;;;;;;;;;;143731;614;46020;-90
2021/10/10 08:23:11;;;;;;;15.68;7.15;;;;;;;;;;143731;573;47020;-89
2021/10/10 08:25:38;;;;;;;9.43;6.05;;;;;;;;;;143732;570;46012;-92
2021/10/10 08:28:05;;;;;;;12.95;7.25;;;;;;;;;;143723;569;46041;-88
2021/10/10 08:30:33;;;;;;;8.73;6.37;;;;;;;;;;143732;594;46013;-90
2021/10/10 08:33:00;;;;;;;13.38;6.87;;;;;;;;;;143734;578;46014;-89
2021/10/10 08:35:26;;;;;;;12.02;5.97;;;;;;;;;;143730;582;46012;-91
2021/10/10 08:37:53;;;;;;;12.40;5.97;;;;;;;;;;143732;596;46018;-88
2021/10/10 08:40:20;;;;;;;12.88;5.87;;;;;;;;;;143733;569;46012;-87
2021/10/10 08:42:52;;;;;;;17.87;10.63;;;;;;;;;;143732;588;46016;-89
2021/10/10 08:45:23;;;;;;;13.93;8.23;;;;;;;;;;143734;575;46012;-88
2021/10/10 08:47:52;;;;;;;15.90;8.40;;;;;;;;;;143732;652;46021;-89
2021/10/10 08:50:24;;;;;;;15.07;7.25;;;;;;;;;;143732;701;46014;-89
2021/10/10 08:52:55;;;;;;;11.35;7.90;;;;;;;;;;143729;578;47018;-89
2021/10/10 08:55:25;;;;;;;11.90;7.62;;;;;;;;;;143729;637;46013;-89
2021/10/10 08:57:55;;;;;;;11.82;7.28;;;;;;;;;;143729;577;47018;-89
2021/10/10 09:03:13;;;;;;;15.02;7.75;;;;;;;;;;143731;582;46016;-88
2021/10/10 09:05:39;;;;;;;15.88;8.65;;;;;;;;;;143732;611;46012;-89
2021/10/10 09:08:07;;;;;;;9.55;8.18;;;;;;;;;;143731;578;47018;-87
2021/10/10 09:10:34;;;;;;;14.10;8.15;;;;;;;;;;143735;571;46020;-90
2021/10/10 09:13:11;;;;;;;11.98;8.40;;;;;;;;;;143732;592;47020;-89
2021/10/10 09:15:43;;;;;;;13.95;7.60;;;;;;;;;;143730;598;46013;-89
2021/10/10 09:18:11;;;;;;;12.18;7.80;;;;;;;;;;143727;596;46018;-92
2021/10/10 09:20:45;;;;;;;11.00;8.80;;;;;;;;;;143733;585;46012;-93
2021/10/10 09:23:39;;;;;;;12.07;9.10;;;;;;;;;;143731;593;46019;-93
2021/10/10 09:26:06;;;;;;;13.55;8.70;;;;;;;;;;143732;580;46012;-91
2021/10/10 09:28:34;;;;;;;12.73;7.65;;;;;;;;;;143734;569;47018;-90
2021/10/10 09:31:03;;;;;;;16.08;10.85;;;;;;;;;;143733;583;46021;-92
2021/10/10 09:33:51;;;;;;;16.17;9.07;;;;;;;;;;143734;601;46018;-91
2021/10/10 09:36:24;;;;;;;16.75;10.35;;;;;;;;;;143732;583;46012;-91
2021/10/10 09:39:07;;;;;;;12.32;9.70;;;;;;;;;;143730;579;47019;-91
2021/10/10 09:41:41;;;;;;;12.93;10.50;;;;;;;;;;143733;570;46012;-91
2021/10/10 09:44:34;;;;;;;17.92;10.63;;;;;;;;;;143725;650;47020;-91
2021/10/10 09:47:04;;;;;;;11.90;10.05;;;;;;;;;;143731;604;46012;-91
2021/10/10 09:49:33;;;;;;;16.27;11.57;;;;;;;;;;143733;610;46018;-91
2021/10/10 09:52:14;;;;;;;15.13;11.85;;;;;;;;;;143735;609;46014;-91
2021/10/10 09:54:55;;;;;;;13.73;10.80;;;;;;;;;;143729;635;46014;-91
2021/10/10 09:57:23;;;;;;;13.62;8.77;;;;;;;;;;143731;569;46012;-93
2021/10/10 09:59:50;;;;;;;12.43;9.50;;;;;;;;;;143733;577;46018;-91
2021/10/10 10:02:17;;;;;;;14.95;9.70;;;;;;;;;;143735;585;46012;-89
2021/10/10 10:04:51;;;;;;;9.52;8.55;;;;;;;;;;143732;586;46014;-91
2021/10/10 10:07:22;;;;;;;12.85;10.05;;;;;;;;;;143732;600;46012;-90
2021/10/10 10:09:52;;;;;;;11.70;7.90;;;;;;;;;;143723;572;47018;-92
2021/10/10 10:12:20;;;;;;;17.08;8.85;;;;;;;;;;143731;564;46012;-91
2021/10/10 10:14:56;;;;;;;10.30;7.90;;;;;;;;;;143732;578;47018;-91
2021/10/10 10:17:24;;;;;;;10.00;8.93;;;;;;;;;;143730;609;46012;-91
2021/10/10 10:19:53;;;;;;;11.93;7.68;;;;;;;;;;143732;606;46044;-89
2021/10/10 10:22:21;;;;;;;10.80;7.07;;;;;;;;;;143735;583;46022;-92
2021/10/10 10:24:48;;;;;;;8.95;6.62;;;;;;;;;;143732;588;47021;-91
2021/10/10 10:27:17;;;;;;;7.65;5.85;;;;;;;;;;143734;579;46022;-91
2021/10/10 10:29:47;;;;;;;9.20;6.20;;;;;;;;;;143733;589;46018;-90
2021/10/10 10:32:16;;;;;;;9.15;5.20;;;;;;;;;;143736;574;46012;-90
2021/10/10 10:35:21;;;;;;;6.37;5.78;;;;;;;;;;143724;569;47020;-91
2021/10/10 10:37:49;;;;;;;7.70;5.25;;;;;;;;;;143731;573;46013;-90
2021/10/10 10:40:36;;;;;;;6.35;5.50;;;;;;;;;;143733;575;46018;-90
2021/10/10 10:43:04;;;;;;;9.40;7.07;;;;;;;;;;143735;564;46012;-90
2021/10/10 10:45:38;;;;;;;9.40;6.22;;;;;;;;;;143730;595;47034;-92
2021/10/10 10:48:29;;;;;;;13.82;9.55;;;;;;;;;;143732;673;46919;-91
2021/10/10 10:51:33;;;;;;;8.85;5.37;;;;;;;;;;143733;610;46018;-90
2021/10/10 10:54:38;;;;;;;7.03;4.97;;;;;;;;;;143735;595;46023;-91
2021/10/10 10:57:30;;;;;;;9.07;7.07;;;;;;;;;;143734;584;47018;-93
2021/10/10 11:00:20;;;;;;;8.73;7.03;;;;;;;;;;143735;571;46015;-91
2021/10/10 11:03:36;;;;;;;9.60;7.05;;;;;;;;;;143728;564;46014;-92
2021/10/10 11:06:23;;;;;;;12.00;8.02;;;;;;;;;;143735;619;47022;-91
2021/10/10 11:08:50;;;;;;;13.68;9.10;;;;;;;;;;143733;592;46032;-90
2021/10/10 11:11:19;;;;;;;9.52;7.53;;;;;;;;;;143730;609;46022;-90
2021/10/10 11:14:03;;;;;;;10.00;8.55;;;;;;;;;;143734;564;45028;-90
2021/10/10 11:16:38;;;;;;;13.40;7.18;;;;;;;;;;143735;615;46023;-90
2021/10/10 11:19:08;;;;;;;9.43;7.28;;;;;;;;;;143730;564;47018;-91
2021/10/10 11:21:40;;;;;;;9.32;6.25;;;;;;;;;;143732;564;46012;-89
2021/10/10 11:24:19;;;;;;;8.60;6.40;;;;;;;;;;143734;632;46018;-90
2021/10/10 11:26:48;;;;;;;12.60;8.00;;;;;;;;;;143734;622;46020;-88
2021/10/10 11:29:17;;;;;;;14.80;10.80;;;;;;;;;;143725;571;46020;-89
2021/10/10 11:31:53;;;;;;;13.77;7.90;;;;;;;;;;143732;605;46022;-89
2021/10/10 11:34:26;;;;;;;9.18;6.28;;;;;;;;;;143736;653;46018;-88
2021/10/10 11:37:15;;;;;;;10.45;7.55;;;;;;;;;;143732;578;46022;-93
2021/10/10 11:39:41;;;;;;;10.38;6.95;;;;;;;;;;143731;596;47018;-89
2021/10/10 11:42:10;;;;;;;7.05;5.78;;;;;;;;;;143730;577;46012;-89
2021/10/10 11:44:42;;;;;;;14.43;6.95;;;;;;;;;;143733;564;46019;-90
2021/10/10 11:47:26;;;;;;;11.88;7.15;;;;;;;;;;143735;661;46012;-90
2021/10/10 11:50:00;;;;;;;10.82;6.68;;;;;;;;;;143732;564;46020;-90
2021/10/10 11:52:33;;;;;;;13.57;5.72;;;;;;;;;;143731;610;46023;-90
2021/10/10 11:55:20;;;;;;;8.20;5.70;;;;;;;;;;143724;582;47018;-90
2021/10/10 11:57:57;;;;;;;8.68;6.25;;;;;;;;;;143732;581;46012;-89
2021/10/10 12:00:31;;;;;;;11.60;6.60;;;;;;;;;;143731;596;46021;-90
2021/10/10 12:03:14;;;;;;;13.57;6.97;;;;;;;;;;143731;587;46012;-89
2021/10/10 12:05:43;;;;;;;13.20;8.03;;;;;;;;;;143730;681;47018;-88
2021/10/10 12:08:21;;;;;;;8.73;6.72;;;;;;;;;;143735;583;46013;-88
2021/10/10 12:10:49;;;;;;;7.72;5.72;;;;;;;;;;143733;570;47020;-89
2021/10/10 12:13:20;;;;;;;9.05;5.50;;;;;;;;;;143731;607;46022;-87
2021/10/10 12:16:00;;;;;;;6.37;4.45;;;;;;;;;;143731;661;47019;-88
2021/10/10 12:18:31;;;;;;;5.40;4.90;;;;;;;;;;143734;564;46012;-89
2021/10/10 12:21:20;;;;;;;5.85;4.40;;;;;;;;;;143727;606;46018;-89
2021/10/10 12:24:23;;;;;;;9.60;5.93;;;;;;;;;;143732;613;46012;-89
2021/10/10 12:27:02;;;;;;;7.50;5.35;;;;;;;;;;143732;565;47018;-89
2021/10/10 12:29:30;;;;;;;7.47;6.68;;;;;;;;;;143734;589;46013;-87
2021/10/10 12:32:23;;;;;;;8.35;6.15;;;;;;;;;;143731;600;47018;-88
2021/10/10 12:35:16;;;;;;;6.53;5.13;;;;;;;;;;143736;719;46012;-89
2021/10/10 12:37:58;;;;;;;8.35;6.37;;;;;;;;;;143737;564;46019;-86
2021/10/10 12:40:35;;;;;;;7.45;6.12;;;;;;;;;;143737;584;46012;-86
2021/10/10 12:43:04;;;;;;;8.52;6.05;;;;;;;;;;143733;564;46020;-86
2021/10/10 12:45:32;;;;;;;10.40;7.12;;;;;;;;;;143735;591;46012;-89
2021/10/10 12:48:10;;;;;;;7.80;6.18;;;;;;;;;;143727;566;46018;-88
2021/10/10 12:50:51;;;;;;;6.40;5.55;;;;;;;;;;143733;612;47022;-89
2021/10/10 12:53:27;;;;;;;6.35;5.70;;;;;;;;;;143730;564;47018;-89
2021/10/10 12:56:19;;;;;;;8.50;6.40;;;;;;;;;;143731;585;46918;-89
2021/10/10 12:58:58;;;;;;;9.60;5.70;;;;;;;;;;143732;593;47018;-88
2021/10/10 13:01:35;;;;;;;7.72;6.10;;;;;;;;;;143729;604;46023;-88
2021/10/10 13:04:04;;;;;;;9.10;6.22;;;;;;;;;;143732;576;46018;-88
2021/10/10 13:06:48;;;;;;;;;;;;;;;;;;;;;
2021/10/10 13:09:40;;;;;;;11.30;6.57;;;;;;;;;;143733;572;46016;-87
2021/10/10 13:12:16;;;;;;;4.78;3.97;;;;;;;;;;143734;597;46022;-85
2021/10/10 13:14:49;;;;;;;4.62;4.00;;;;;;;;;;143724;579;47019;-86
2021/10/10 13:17:15;;;;;;;9.50;5.35;;;;;;;;;;143735;595;46012;-85
2021/10/10 13:19:46;;;;;;;6.60;5.32;;;;;;;;;;143732;589;46911;-86
2021/10/10 13:22:17;;;;;;;7.55;5.72;;;;;;;;;;143735;569;46012;-87
2021/10/10 13:24:45;;;;;;;6.22;5.53;;;;;;;;;;143734;622;46018;-87
2021/10/10 13:27:12;;;;;;;7.12;5.78;;;;;;;;;;143732;580;46012;-85
2021/10/10 13:29:39;;;;;;;9.48;5.10;;;;;;;;;;143732;571;46019;-88
2021/10/10 13:32:06;;;;;;;14.10;5.90;;;;;;;;;;143733;634;46020;-86
2021/10/10 13:34:39;;;;;;;7.95;5.18;;;;;;;;;;143732;610;47018;-91
2021/10/10 13:37:08;;;;;;;;;;;;;;;;;;143734;979;48012;-88
2021/10/10 13:39:45;;;;;;;9.85;4.90;;;;;;;;;;143730;590;46018;-88
2021/10/10 13:42:13;;;;;;;6.07;5.43;;;;;;;;;;143729;602;47022;-88
2021/10/10 13:44:42;;;;;;;7.60;4.82;;;;;;;;;;143729;604;46019;-89
2021/10/10 13:47:09;;;;;;;8.40;5.25;;;;;;;;;;143728;565;46012;-90
2021/10/10 13:49:43;;;;;;;6.95;5.32;;;;;;;;;;143732;648;46018;-88
2021/10/10 13:52:10;;;;;;;7.70;5.37;;;;;;;;;;143732;670;46023;-88
2021/10/10 13:54:47;;;;;;;9.70;5.85;;;;;;;;;;143730;636;46020;-88
2021/10/10 13:57:14;;;;;;;6.00;5.40;;;;;;;;;;143731;594;46013;-89
2021/10/10 13:59:42;;;;;;;10.77;5.62;;;;;;;;;;143730;582;47018;-89
2021/10/10 14:02:12;;;;;;;8.93;4.95;;;;;;;;;;143732;609;46022;-88
2021/10/10 14:04:40;;;;;;;8.38;5.12;;;;;;;;;;143722;613;47020;-87
2021/10/10 14:07:08;;;;;;;11.43;6.07;;;;;;;;;;143730;579;46013;-89
2021/10/10 14:09:34;;;;;;;9.25;5.03;;;;;;;;;;143730;604;47016;-92
2021/10/10 14:12:02;;;;;;;8.57;5.97;;;;;;;;;;143732;601;46012;-88
2021/10/10 14:14:40;;;;;;;8.95;4.95;;;;;;;;;;143732;591;46013;-89
2021/10/10 14:17:11;;;;;;;6.90;6.10;;;;;;;;;;143729;603;46022;-89
2021/10/10 14:19:46;;;;;;;6.85;6.20;;;;;;;;;;143734;601;47018;-90
2021/10/10 14:22:17;;;;;;;6.32;5.43;;;;;;;;;;143730;591;46047;-91
2021/10/10 14:24:47;;;;;;;10.02;6.53;;;;;;;;;;143727;616;47018;-89
2021/10/10 14:27:17;;;;;;;8.38;5.85;;;;;;;;;;143729;563;46022;-88
2021/10/10 14:29:56;;;;;;;;;;;;;;;;;;;;;
2021/10/10 14:32:23;;;;;;;9.00;5.78;;;;;;;;;;143733;655;46014;-89
2021/10/10 14:34:55;;;;;;;8.48;5.97;;;;;;;;;;143731;587;46018;-89
2021/10/10 14:37:22;;;;;;;6.90;5.87;;;;;;;;;;143730;606;45919;-88
2021/10/10 14:39:55;;;;;;;10.00;6.20;;;;;;;;;;143733;582;46014;-88
2021/10/10 14:42:35;;;;;;;6.82;5.53;;;;;;;;;;143731;582;47021;-90
2021/10/10 14:45:11;;;;;;;13.55;6.25;;;;;;;;;;143729;576;46014;-89
2021/10/10 14:50:28;;;;;;;10.15;7.03;;;;;;;;;;143731;622;46019;-90
2021/10/10 14:52:55;;;;;;;9.90;6.82;;;;;;;;;;143731;656;46022;-89
2021/10/10 14:55:23;;;;;;;7.47;6.35;;;;;;;;;;143722;645;47020;-91
2021/10/10 14:57:53;;;;;;;9.63;6.20;;;;;;;;;;143730;575;46012;-90
2021/10/10 15:00:21;;;;;;;8.43;6.87;;;;;;;;;;143732;601;46018;-89
2021/10/10 15:02:48;;;;;;;9.90;6.37;;;;;;;;;;143728;569;47022;-89
2021/10/10 15:05:16;;;;;;;10.63;6.78;;;;;;;;;;143729;578;47018;-88